F/V Si — FGYP — position and weather

sailwx.info

Track history (hours):
 
Tides and Currents Weather Stations Pressure Air Temp Water Temp Dewpoint Dewpoint Depression Visibility Wind Speed Wind Dir Waves Ship Positions

F/V Si

Last reported at 2017-Sep-24 19:21 UTC. Time now 2017-Sep-24 19:33 UTC.
Position N 47°40' W 005°07'.

Type: Fishing. MMSI: 227442000.

Date/timePositionNaut miles runAvg speedWind from/ knotsBaromVisibWave heightAir tempDewpointWater temp
2017-Sep-24 19:21N 47°40' W 005°07'2 7.0
2017-Sep-24 19:00N 47°40' W 005°03'6 6.5
2017-Sep-24 18:03N 47°41' W 004°54'44 7.7
2017-Sep-24 12:19N 47°39' W 003°49'3 7.8
2017-Sep-24 11:58N 47°39' W 003°45'4 7.9
2017-Sep-24 11:30N 47°40' W 003°39'4 7.8
2017-Sep-24 11:00N 47°40' W 003°33'4 7.5
2017-Sep-24 10:30N 47°40' W 003°28'4 7.6
2017-Sep-24 10:00N 47°42' W 003°23'2 3.9
2017-Sep-24 09:30N 47°44' W 003°22'0 0.0
2017-Sep-24 09:00N 47°44' W 003°22'0 0.0
2017-Sep-24 08:30N 47°44' W 003°22'0 0.2
2017-Sep-24 08:00N 47°44' W 003°22'0 0.0
2017-Sep-24 07:30N 47°44' W 003°22'0 0.0
2017-Sep-24 07:00N 47°44' W 003°22'0 0.0
2017-Sep-24 06:30N 47°44' W 003°22'0 0.0
2017-Sep-24 06:00N 47°44' W 003°22'0 0.0
2017-Sep-24 05:30N 47°44' W 003°22'0 0.0
2017-Sep-24 05:00N 47°44' W 003°22'0 0.0
2017-Sep-24 04:30N 47°44' W 003°22'0 0.0
2017-Sep-24 04:00N 47°44' W 003°22'0 0.0
2017-Sep-24 03:30N 47°44' W 003°22'0 0.0
2017-Sep-24 03:00N 47°44' W 003°22'0 0.0
2017-Sep-24 02:30N 47°44' W 003°22'0 0.0
2017-Sep-24 02:00N 47°44' W 003°22'0 0.0
2017-Sep-24 01:30N 47°44' W 003°22'0 0.0
2017-Sep-24 01:00N 47°44' W 003°22'0 0.0
2017-Sep-24 00:30N 47°44' W 003°22'0 0.0
2017-Sep-24 00:00N 47°44' W 003°22'0 0.0
2017-Sep-23 23:30N 47°44' W 003°22'0 0.0
2017-Sep-23 23:00N 47°44' W 003°22'0 0.0
2017-Sep-23 22:30N 47°44' W 003°22'0 0.0
2017-Sep-23 22:00N 47°44' W 003°22'0 0.0
2017-Sep-23 21:30N 47°44' W 003°22'0 0.0
2017-Sep-23 21:00N 47°44' W 003°22'0 0.0
2017-Sep-23 20:30N 47°44' W 003°22'0 0.0
2017-Sep-23 20:00N 47°44' W 003°22'0 0.0
2017-Sep-22 02:00N 47°44' W 003°22'0 0.0
2017-Sep-22 01:30N 47°44' W 003°22'0 0.0
2017-Sep-22 01:00N 47°44' W 003°22'0 0.0
2017-Sep-22 00:30N 47°44' W 003°22'0 0.0
2017-Sep-22 00:00N 47°44' W 003°22'0 0.0
2017-Sep-21 23:30N 47°44' W 003°22'0 0.0
2017-Sep-21 23:00N 47°44' W 003°22'0 0.0
2017-Sep-21 22:30N 47°44' W 003°22'0 0.0
2017-Sep-21 22:00N 47°44' W 003°22'0 0.0
2017-Sep-21 21:30N 47°44' W 003°22'0 0.0
2017-Sep-21 21:00N 47°44' W 003°22'0 0.0
2017-Sep-21 20:30N 47°44' W 003°22'0 0.0
2017-Sep-21 20:00N 47°44' W 003°22'0 0.0
2017-Sep-21 19:30N 47°44' W 003°22'0 0.0
2017-Sep-21 19:00N 47°44' W 003°22'0 0.0
2017-Sep-21 18:30N 47°44' W 003°22'0 0.0
2017-Sep-21 18:00N 47°44' W 003°22'0 0.0
2017-Sep-21 17:30N 47°44' W 003°22'0 0.0
2017-Sep-21 17:00N 47°44' W 003°22'0 0.0
2017-Sep-21 16:30N 47°44' W 003°22'0 0.0
2017-Sep-21 16:00N 47°44' W 003°22'0 0.0
2017-Sep-21 15:30N 47°44' W 003°22'0 0.0
2017-Sep-21 15:00N 47°44' W 003°22'0 0.0
2017-Sep-21 14:30N 47°44' W 003°22'0 0.0
2017-Sep-21 14:00N 47°44' W 003°22'0 0.0
2017-Sep-21 13:30N 47°44' W 003°22'0 0.0
2017-Sep-21 13:00N 47°44' W 003°22'0 0.0
2017-Sep-21 12:30N 47°44' W 003°22'0 0.0
2017-Sep-21 12:00N 47°44' W 003°22'0 0.0
2017-Sep-21 11:30N 47°44' W 003°22'0 0.0
2017-Sep-21 11:00N 47°44' W 003°22'0 0.0
2017-Sep-21 10:30N 47°44' W 003°22'0 0.0
2017-Sep-21 10:00N 47°44' W 003°22'0 0.0
2017-Sep-21 09:30N 47°44' W 003°22'0 0.0
2017-Sep-21 09:00N 47°44' W 003°22'0 0.0
2017-Sep-21 08:30N 47°44' W 003°22'0 0.0
2017-Sep-21 08:00N 47°44' W 003°22'0 0.0
2017-Sep-21 07:30N 47°44' W 003°22'0 0.0
2017-Sep-21 07:00N 47°44' W 003°22'0 0.0
2017-Sep-21 06:30N 47°44' W 003°22'0 0.0
2017-Sep-21 06:00N 47°44' W 003°22'0 0.0
2017-Sep-21 05:30N 47°44' W 003°22'0 0.0
2017-Sep-21 05:00N 47°44' W 003°22'0 0.0
2017-Sep-21 04:30N 47°44' W 003°22'0 0.0
2017-Sep-21 04:00N 47°44' W 003°22'0 0.0
2017-Sep-21 03:30N 47°44' W 003°22'0 0.0
2017-Sep-21 03:00N 47°44' W 003°22'0 0.0
2017-Sep-21 02:30N 47°44' W 003°22'0 0.0
2017-Sep-21 02:00N 47°44' W 003°22'0 0.0
2017-Sep-21 01:30N 47°44' W 003°22'0 0.0
2017-Sep-21 01:00N 47°44' W 003°22'0 0.0
2017-Sep-21 00:30N 47°44' W 003°22'0 0.0
2017-Sep-21 00:00N 47°44' W 003°22'0 0.0
2017-Sep-20 23:30N 47°44' W 003°22'0 0.0
2017-Sep-20 23:00N 47°44' W 003°22'0 0.0
2017-Sep-20 22:30N 47°44' W 003°22'0 0.0
2017-Sep-20 22:00N 47°44' W 003°22'0 0.0
2017-Sep-20 21:30N 47°44' W 003°22'0 0.0
2017-Sep-20 21:00N 47°44' W 003°22'0 0.0
2017-Sep-20 20:30N 47°44' W 003°22'0 0.0
2017-Sep-20 20:00N 47°44' W 003°22'0 0.0
2017-Sep-20 19:30N 47°44' W 003°22'0 0.0
2017-Sep-20 19:00N 47°44' W 003°22'0 0.0
2017-Sep-20 18:30N 47°44' W 003°22'0 0.0
2017-Sep-20 18:00N 47°44' W 003°22'0 0.0
2017-Sep-20 17:30N 47°44' W 003°22'0 0.0
2017-Sep-20 17:00N 47°44' W 003°22'0 0.0
2017-Sep-20 16:30N 47°44' W 003°22'0 0.0
2017-Sep-20 16:00N 47°44' W 003°22'0 0.0
2017-Sep-20 15:30N 47°44' W 003°22'0 0.0
2017-Sep-20 15:00N 47°44' W 003°22'0 0.0
2017-Sep-20 14:00N 47°44' W 003°22'0 0.0
2017-Sep-20 13:30N 47°44' W 003°22'0 0.0
2017-Sep-20 13:00N 47°44' W 003°22'0 0.0
2017-Sep-20 12:30N 47°44' W 003°22'0 0.0
2017-Sep-20 12:00N 47°44' W 003°22'0 0.0
2017-Sep-20 11:30N 47°44' W 003°22'0 0.0
2017-Sep-20 11:00N 47°44' W 003°22'0 0.0
2017-Sep-20 10:30N 47°44' W 003°22'0 0.0
2017-Sep-20 10:00N 47°44' W 003°22'0 0.0
2017-Sep-20 09:30N 47°44' W 003°22'0 0.0
2017-Sep-20 09:00N 47°44' W 003°22'0 0.0
2017-Sep-20 08:30N 47°44' W 003°22'0 0.0
2017-Sep-20 08:00N 47°44' W 003°22'0 0.0
2017-Sep-20 07:30N 47°44' W 003°22'0 0.0
2017-Sep-20 07:00N 47°44' W 003°22'0 0.0
2017-Sep-20 06:30N 47°44' W 003°22'0 0.0
2017-Sep-20 06:00N 47°44' W 003°22'0 0.0
2017-Sep-20 05:30N 47°44' W 003°22'0 0.0
2017-Sep-20 05:00N 47°44' W 003°22'0 0.0
2017-Sep-20 04:30N 47°44' W 003°22'0 0.0
2017-Sep-20 04:00N 47°44' W 003°22'0 0.0
2017-Sep-20 03:30N 47°44' W 003°22'0 0.0
2017-Sep-20 03:00N 47°44' W 003°22'0 0.0
2017-Sep-20 02:30N 47°44' W 003°22'0 0.0
2017-Sep-20 02:00N 47°44' W 003°22'0 0.0
2017-Sep-20 01:30N 47°44' W 003°22'0 0.0
2017-Sep-20 01:00N 47°44' W 003°22'0 0.0
2017-Sep-20 00:30N 47°44' W 003°22'0 0.0
2017-Sep-20 00:00N 47°44' W 003°22'0 0.0
2017-Sep-19 23:30N 47°44' W 003°22'0 0.0
2017-Sep-19 23:00N 47°44' W 003°22'0 0.0
2017-Sep-19 22:30N 47°44' W 003°22'0 0.0
2017-Sep-19 22:00N 47°44' W 003°22'0 0.0
2017-Sep-19 21:30N 47°44' W 003°22'0 0.0
2017-Sep-19 21:00N 47°44' W 003°22'0 0.0
2017-Sep-19 20:30N 47°44' W 003°22'0 0.0
2017-Sep-19 20:00N 47°44' W 003°22'0 0.0
2017-Sep-19 19:30N 47°44' W 003°22'0 0.0
2017-Sep-19 19:00N 47°44' W 003°22'0 0.0
2017-Sep-19 18:30N 47°44' W 003°22'0 0.0
2017-Sep-19 18:00N 47°44' W 003°22'0 0.0
2017-Sep-19 17:30N 47°44' W 003°22'0 0.0
2017-Sep-19 17:00N 47°44' W 003°22'0 0.0
2017-Sep-19 16:30N 47°44' W 003°22'0 0.0
2017-Sep-19 16:00N 47°44' W 003°22'0 0.0
2017-Sep-19 15:30N 47°44' W 003°22'0 0.0
2017-Sep-19 15:00N 47°44' W 003°22'0 0.0
2017-Sep-19 14:30N 47°44' W 003°22'0 0.0
2017-Sep-19 14:00N 47°44' W 003°22'0 0.0
2017-Sep-19 13:30N 47°44' W 003°22'0 0.0
2017-Sep-19 13:00N 47°44' W 003°22'0 0.0
2017-Sep-19 12:30N 47°44' W 003°22'0 0.0
2017-Sep-19 12:00N 47°44' W 003°22'0 0.0
2017-Sep-19 11:30N 47°44' W 003°22'0 0.0
2017-Sep-19 11:00N 47°44' W 003°22'0 0.0
2017-Sep-19 10:30N 47°44' W 003°22'0 0.0
2017-Sep-19 10:00N 47°44' W 003°22'0 0.0
2017-Sep-19 09:30N 47°44' W 003°22'0 0.0
2017-Sep-19 09:00N 47°44' W 003°22'0 0.0
2017-Sep-19 08:30N 47°44' W 003°22'0 0.0
2017-Sep-19 08:00N 47°44' W 003°22'0 0.0
2017-Sep-19 07:30N 47°44' W 003°22'0 0.0
2017-Sep-19 07:00N 47°44' W 003°22'0 0.0
2017-Sep-19 06:30N 47°44' W 003°22'0 0.0
2017-Sep-19 06:00N 47°44' W 003°22'0 0.0
2017-Sep-19 05:30N 47°44' W 003°22'0 0.0
2017-Sep-19 05:00N 47°44' W 003°22'0 0.0
2017-Sep-19 04:30N 47°44' W 003°22'0 0.0
2017-Sep-19 04:00N 47°44' W 003°22'0 0.0
2017-Sep-19 03:30N 47°44' W 003°22'0 0.0
2017-Sep-19 03:00N 47°44' W 003°22'0 0.0
2017-Sep-19 02:30N 47°44' W 003°22'0 0.0
2017-Sep-19 02:00N 47°44' W 003°22'0 0.0
2017-Sep-19 01:30N 47°44' W 003°22'0 0.0
2017-Sep-19 01:00N 47°44' W 003°22'0 0.0
2017-Sep-19 00:30N 47°44' W 003°22'0 0.0
2017-Sep-19 00:00N 47°44' W 003°22'0 0.0
2017-Sep-18 23:30N 47°44' W 003°22'0 0.0
2017-Sep-18 23:00N 47°44' W 003°22'0 0.0
2017-Sep-18 22:30N 47°44' W 003°22'0 0.0
2017-Sep-18 22:00N 47°44' W 003°22'0 0.0
2017-Sep-18 21:30N 47°44' W 003°22'0 0.0
2017-Sep-18 21:00N 47°44' W 003°22'0 0.0
2017-Sep-18 20:30N 47°44' W 003°22'0 0.0
2017-Sep-18 20:00N 47°44' W 003°22'0 0.0
2017-Sep-18 19:30N 47°44' W 003°22'0 0.0
2017-Sep-18 19:00N 47°44' W 003°22'0 0.0
2017-Sep-18 18:30N 47°44' W 003°22'0 0.0
2017-Sep-18 18:00N 47°44' W 003°22'0 0.0
2017-Sep-18 17:30N 47°44' W 003°22'0 0.0
2017-Sep-18 17:00N 47°44' W 003°22'0 0.0
2017-Sep-18 16:30N 47°44' W 003°22'0 0.3
2017-Sep-18 16:00N 47°44' W 003°22'0 0.0
2017-Sep-18 15:30N 47°44' W 003°22'0 0.0
2017-Sep-18 15:00N 47°44' W 003°22'0 0.3
2017-Sep-18 14:30N 47°44' W 003°22'4 7.1
2017-Sep-18 14:00N 47°41' W 003°25'4 8.3
2017-Sep-18 13:30N 47°40' W 003°31'4 8.3
2017-Sep-18 13:00N 47°39' W 003°37'4 8.4
2017-Sep-18 12:30N 47°39' W 003°43'4 8.1
2017-Sep-18 12:00N 47°38' W 003°49'4 8.0
2017-Sep-18 11:30N 47°38' W 003°55'4 8.0
2017-Sep-18 11:00N 47°38' W 004°01'32 7.7
2017-Sep-18 06:49N 47°44' W 004°48'3 7.7
2017-Sep-18 06:26N 47°45' W 004°53'4 7.6
2017-Sep-18 05:57N 47°46' W 004°58'3 7.7
2017-Sep-18 05:30N 47°47' W 005°03'4 8.0
2017-Sep-18 04:58N 47°49' W 005°08'  
Track history (hours):
 
Tides and Currents Weather Stations Pressure Air Temp Water Temp Dewpoint Dewpoint Depression Visibility Wind Speed Wind Dir Waves Ship Positions

F/V Si

Last reported at 2017-Sep-24 19:21 UTC. Time now 2017-Sep-24 19:33 UTC.
Position N 47°40' W 005°07'.

Type: Fishing. MMSI: 227442000.

Date/timePositionNaut miles runAvg speedWind from/ knotsBaromVisibWave heightAir tempDewpointWater temp
2017-Sep-24 19:21N 47°40' W 005°07'2 7.0
2017-Sep-24 19:00N 47°40' W 005°03'6 6.5
2017-Sep-24 18:03N 47°41' W 004°54'44 7.7
2017-Sep-24 12:19N 47°39' W 003°49'3 7.8
2017-Sep-24 11:58N 47°39' W 003°45'4 7.9
2017-Sep-24 11:30N 47°40' W 003°39'4 7.8
2017-Sep-24 11:00N 47°40' W 003°33'4 7.5
2017-Sep-24 10:30N 47°40' W 003°28'4 7.6
2017-Sep-24 10:00N 47°42' W 003°23'2 3.9
2017-Sep-24 09:30N 47°44' W 003°22'0 0.0
2017-Sep-24 09:00N 47°44' W 003°22'0 0.0
2017-Sep-24 08:30N 47°44' W 003°22'0 0.2
2017-Sep-24 08:00N 47°44' W 003°22'0 0.0
2017-Sep-24 07:30N 47°44' W 003°22'0 0.0
2017-Sep-24 07:00N 47°44' W 003°22'0 0.0
2017-Sep-24 06:30N 47°44' W 003°22'0 0.0
2017-Sep-24 06:00N 47°44' W 003°22'0 0.0
2017-Sep-24 05:30N 47°44' W 003°22'0 0.0
2017-Sep-24 05:00N 47°44' W 003°22'0 0.0
2017-Sep-24 04:30N 47°44' W 003°22'0 0.0
2017-Sep-24 04:00N 47°44' W 003°22'0 0.0
2017-Sep-24 03:30N 47°44' W 003°22'0 0.0
2017-Sep-24 03:00N 47°44' W 003°22'0 0.0
2017-Sep-24 02:30N 47°44' W 003°22'0 0.0
2017-Sep-24 02:00N 47°44' W 003°22'0 0.0
2017-Sep-24 01:30N 47°44' W 003°22'0 0.0
2017-Sep-24 01:00N 47°44' W 003°22'0 0.0
2017-Sep-24 00:30N 47°44' W 003°22'0 0.0
2017-Sep-24 00:00N 47°44' W 003°22'0 0.0
2017-Sep-23 23:30N 47°44' W 003°22'0 0.0
2017-Sep-23 23:00N 47°44' W 003°22'0 0.0
2017-Sep-23 22:30N 47°44' W 003°22'0 0.0
2017-Sep-23 22:00N 47°44' W 003°22'0 0.0
2017-Sep-23 21:30N 47°44' W 003°22'0 0.0
2017-Sep-23 21:00N 47°44' W 003°22'0 0.0
2017-Sep-23 20:30N 47°44' W 003°22'0 0.0
2017-Sep-23 20:00N 47°44' W 003°22'0 0.0
2017-Sep-22 02:00N 47°44' W 003°22'0 0.0
2017-Sep-22 01:30N 47°44' W 003°22'0 0.0
2017-Sep-22 01:00N 47°44' W 003°22'0 0.0
2017-Sep-22 00:30N 47°44' W 003°22'0 0.0
2017-Sep-22 00:00N 47°44' W 003°22'0 0.0
2017-Sep-21 23:30N 47°44' W 003°22'0 0.0
2017-Sep-21 23:00N 47°44' W 003°22'0 0.0
2017-Sep-21 22:30N 47°44' W 003°22'0 0.0
2017-Sep-21 22:00N 47°44' W 003°22'0 0.0
2017-Sep-21 21:30N 47°44' W 003°22'0 0.0
2017-Sep-21 21:00N 47°44' W 003°22'0 0.0
2017-Sep-21 20:30N 47°44' W 003°22'0 0.0
2017-Sep-21 20:00N 47°44' W 003°22'0 0.0
2017-Sep-21 19:30N 47°44' W 003°22'0 0.0
2017-Sep-21 19:00N 47°44' W 003°22'0 0.0
2017-Sep-21 18:30N 47°44' W 003°22'0 0.0
2017-Sep-21 18:00N 47°44' W 003°22'0 0.0
2017-Sep-21 17:30N 47°44' W 003°22'0 0.0
2017-Sep-21 17:00N 47°44' W 003°22'0 0.0
2017-Sep-21 16:30N 47°44' W 003°22'0 0.0
2017-Sep-21 16:00N 47°44' W 003°22'0 0.0
2017-Sep-21 15:30N 47°44' W 003°22'0 0.0
2017-Sep-21 15:00N 47°44' W 003°22'0 0.0
2017-Sep-21 14:30N 47°44' W 003°22'0 0.0
2017-Sep-21 14:00N 47°44' W 003°22'0 0.0
2017-Sep-21 13:30N 47°44' W 003°22'0 0.0
2017-Sep-21 13:00N 47°44' W 003°22'0 0.0
2017-Sep-21 12:30N 47°44' W 003°22'0 0.0
2017-Sep-21 12:00N 47°44' W 003°22'0 0.0
2017-Sep-21 11:30N 47°44' W 003°22'0 0.0
2017-Sep-21 11:00N 47°44' W 003°22'0 0.0
2017-Sep-21 10:30N 47°44' W 003°22'0 0.0
2017-Sep-21 10:00N 47°44' W 003°22'0 0.0
2017-Sep-21 09:30N 47°44' W 003°22'0 0.0
2017-Sep-21 09:00N 47°44' W 003°22'0 0.0
2017-Sep-21 08:30N 47°44' W 003°22'0 0.0
2017-Sep-21 08:00N 47°44' W 003°22'0 0.0
2017-Sep-21 07:30N 47°44' W 003°22'0 0.0
2017-Sep-21 07:00N 47°44' W 003°22'0 0.0
2017-Sep-21 06:30N 47°44' W 003°22'0 0.0
2017-Sep-21 06:00N 47°44' W 003°22'0 0.0
2017-Sep-21 05:30N 47°44' W 003°22'0 0.0
2017-Sep-21 05:00N 47°44' W 003°22'0 0.0
2017-Sep-21 04:30N 47°44' W 003°22'0 0.0
2017-Sep-21 04:00N 47°44' W 003°22'0 0.0
2017-Sep-21 03:30N 47°44' W 003°22'0 0.0
2017-Sep-21 03:00N 47°44' W 003°22'0 0.0
2017-Sep-21 02:30N 47°44' W 003°22'0 0.0
2017-Sep-21 02:00N 47°44' W 003°22'0 0.0
2017-Sep-21 01:30N 47°44' W 003°22'0 0.0
2017-Sep-21 01:00N 47°44' W 003°22'0 0.0
2017-Sep-21 00:30N 47°44' W 003°22'0 0.0
2017-Sep-21 00:00N 47°44' W 003°22'0 0.0
2017-Sep-20 23:30N 47°44' W 003°22'0 0.0
2017-Sep-20 23:00N 47°44' W 003°22'0 0.0
2017-Sep-20 22:30N 47°44' W 003°22'0 0.0
2017-Sep-20 22:00N 47°44' W 003°22'0 0.0
2017-Sep-20 21:30N 47°44' W 003°22'0 0.0
2017-Sep-20 21:00N 47°44' W 003°22'0 0.0
2017-Sep-20 20:30N 47°44' W 003°22'0 0.0
2017-Sep-20 20:00N 47°44' W 003°22'0 0.0
2017-Sep-20 19:30N 47°44' W 003°22'0 0.0
2017-Sep-20 19:00N 47°44' W 003°22'0 0.0
2017-Sep-20 18:30N 47°44' W 003°22'0 0.0
2017-Sep-20 18:00N 47°44' W 003°22'0 0.0
2017-Sep-20 17:30N 47°44' W 003°22'0 0.0
2017-Sep-20 17:00N 47°44' W 003°22'0 0.0
2017-Sep-20 16:30N 47°44' W 003°22'0 0.0
2017-Sep-20 16:00N 47°44' W 003°22'0 0.0
2017-Sep-20 15:30N 47°44' W 003°22'0 0.0
2017-Sep-20 15:00N 47°44' W 003°22'0 0.0
2017-Sep-20 14:00N 47°44' W 003°22'0 0.0
2017-Sep-20 13:30N 47°44' W 003°22'0 0.0
2017-Sep-20 13:00N 47°44' W 003°22'0 0.0
2017-Sep-20 12:30N 47°44' W 003°22'0 0.0
2017-Sep-20 12:00N 47°44' W 003°22'0 0.0
2017-Sep-20 11:30N 47°44' W 003°22'0 0.0
2017-Sep-20 11:00N 47°44' W 003°22'0 0.0
2017-Sep-20 10:30N 47°44' W 003°22'0 0.0
2017-Sep-20 10:00N 47°44' W 003°22'0 0.0
2017-Sep-20 09:30N 47°44' W 003°22'0 0.0
2017-Sep-20 09:00N 47°44' W 003°22'0 0.0
2017-Sep-20 08:30N 47°44' W 003°22'0 0.0
2017-Sep-20 08:00N 47°44' W 003°22'0 0.0
2017-Sep-20 07:30N 47°44' W 003°22'0 0.0
2017-Sep-20 07:00N 47°44' W 003°22'0 0.0
2017-Sep-20 06:30N 47°44' W 003°22'0 0.0
2017-Sep-20 06:00N 47°44' W 003°22'0 0.0
2017-Sep-20 05:30N 47°44' W 003°22'0 0.0
2017-Sep-20 05:00N 47°44' W 003°22'0 0.0
2017-Sep-20 04:30N 47°44' W 003°22'0 0.0
2017-Sep-20 04:00N 47°44' W 003°22'0 0.0
2017-Sep-20 03:30N 47°44' W 003°22'0 0.0
2017-Sep-20 03:00N 47°44' W 003°22'0 0.0
2017-Sep-20 02:30N 47°44' W 003°22'0 0.0
2017-Sep-20 02:00N 47°44' W 003°22'0 0.0
2017-Sep-20 01:30N 47°44' W 003°22'0 0.0
2017-Sep-20 01:00N 47°44' W 003°22'0 0.0
2017-Sep-20 00:30N 47°44' W 003°22'0 0.0
2017-Sep-20 00:00N 47°44' W 003°22'0 0.0
2017-Sep-19 23:30N 47°44' W 003°22'0 0.0
2017-Sep-19 23:00N 47°44' W 003°22'0 0.0
2017-Sep-19 22:30N 47°44' W 003°22'0 0.0
2017-Sep-19 22:00N 47°44' W 003°22'0 0.0
2017-Sep-19 21:30N 47°44' W 003°22'0 0.0
2017-Sep-19 21:00N 47°44' W 003°22'0 0.0
2017-Sep-19 20:30N 47°44' W 003°22'0 0.0
2017-Sep-19 20:00N 47°44' W 003°22'0 0.0
2017-Sep-19 19:30N 47°44' W 003°22'0 0.0
2017-Sep-19 19:00N 47°44' W 003°22'0 0.0
2017-Sep-19 18:30N 47°44' W 003°22'0 0.0
2017-Sep-19 18:00N 47°44' W 003°22'0 0.0
2017-Sep-19 17:30N 47°44' W 003°22'0 0.0
2017-Sep-19 17:00N 47°44' W 003°22'0 0.0
2017-Sep-19 16:30N 47°44' W 003°22'0 0.0
2017-Sep-19 16:00N 47°44' W 003°22'0 0.0
2017-Sep-19 15:30N 47°44' W 003°22'0 0.0
2017-Sep-19 15:00N 47°44' W 003°22'0 0.0
2017-Sep-19 14:30N 47°44' W 003°22'0 0.0
2017-Sep-19 14:00N 47°44' W 003°22'0 0.0
2017-Sep-19 13:30N 47°44' W 003°22'0 0.0
2017-Sep-19 13:00N 47°44' W 003°22'0 0.0
2017-Sep-19 12:30N 47°44' W 003°22'0 0.0
2017-Sep-19 12:00N 47°44' W 003°22'0 0.0
2017-Sep-19 11:30N 47°44' W 003°22'0 0.0
2017-Sep-19 11:00N 47°44' W 003°22'0 0.0
2017-Sep-19 10:30N 47°44' W 003°22'0 0.0
2017-Sep-19 10:00N 47°44' W 003°22'0 0.0
2017-Sep-19 09:30N 47°44' W 003°22'0 0.0
2017-Sep-19 09:00N 47°44' W 003°22'0 0.0
2017-Sep-19 08:30N 47°44' W 003°22'0 0.0
2017-Sep-19 08:00N 47°44' W 003°22'0 0.0
2017-Sep-19 07:30N 47°44' W 003°22'0 0.0
2017-Sep-19 07:00N 47°44' W 003°22'0 0.0
2017-Sep-19 06:30N 47°44' W 003°22'0 0.0
2017-Sep-19 06:00N 47°44' W 003°22'0 0.0
2017-Sep-19 05:30N 47°44' W 003°22'0 0.0
2017-Sep-19 05:00N 47°44' W 003°22'0 0.0
2017-Sep-19 04:30N 47°44' W 003°22'0 0.0
2017-Sep-19 04:00N 47°44' W 003°22'0 0.0
2017-Sep-19 03:30N 47°44' W 003°22'0 0.0
2017-Sep-19 03:00N 47°44' W 003°22'0 0.0
2017-Sep-19 02:30N 47°44' W 003°22'0 0.0
2017-Sep-19 02:00N 47°44' W 003°22'0 0.0
2017-Sep-19 01:30N 47°44' W 003°22'0 0.0
2017-Sep-19 01:00N 47°44' W 003°22'0 0.0
2017-Sep-19 00:30N 47°44' W 003°22'0 0.0
2017-Sep-19 00:00N 47°44' W 003°22'0 0.0
2017-Sep-18 23:30N 47°44' W 003°22'0 0.0
2017-Sep-18 23:00N 47°44' W 003°22'0 0.0
2017-Sep-18 22:30N 47°44' W 003°22'0 0.0
2017-Sep-18 22:00N 47°44' W 003°22'0 0.0
2017-Sep-18 21:30N 47°44' W 003°22'0 0.0
2017-Sep-18 21:00N 47°44' W 003°22'0 0.0
2017-Sep-18 20:30N 47°44' W 003°22'0 0.0
2017-Sep-18 20:00N 47°44' W 003°22'0 0.0
2017-Sep-18 19:30N 47°44' W 003°22'0 0.0
2017-Sep-18 19:00N 47°44' W 003°22'0 0.0
2017-Sep-18 18:30N 47°44' W 003°22'0 0.0
2017-Sep-18 18:00N 47°44' W 003°22'0 0.0
2017-Sep-18 17:30N 47°44' W 003°22'0 0.0
2017-Sep-18 17:00N 47°44' W 003°22'0 0.0
2017-Sep-18 16:30N 47°44' W 003°22'0 0.3
2017-Sep-18 16:00N 47°44' W 003°22'0 0.0
2017-Sep-18 15:30N 47°44' W 003°22'0 0.0
2017-Sep-18 15:00N 47°44' W 003°22'0 0.3
2017-Sep-18 14:30N 47°44' W 003°22'4 7.1
2017-Sep-18 14:00N 47°41' W 003°25'4 8.3
2017-Sep-18 13:30N 47°40' W 003°31'4 8.3
2017-Sep-18 13:00N 47°39' W 003°37'4 8.4
2017-Sep-18 12:30N 47°39' W 003°43'4 8.1
2017-Sep-18 12:00N 47°38' W 003°49'4 8.0
2017-Sep-18 11:30N 47°38' W 003°55'4 8.0
2017-Sep-18 11:00N 47°38' W 004°01'32 7.7
2017-Sep-18 06:49N 47°44' W 004°48'3 7.7
2017-Sep-18 06:26N 47°45' W 004°53'4 7.6
2017-Sep-18 05:57N 47°46' W 004°58'3 7.7
2017-Sep-18 05:30N 47°47' W 005°03'4 8.0
2017-Sep-18 04:58N 47°49' W 005°08'  

Dump ship's entire track history